Terminal Aerodrome Forecast
Issued by NWS

Home | Current Version | Previous Version | Text Only | Print | Product List | Glossary On
Versions: 1 2 3 4 5 6 7 8 9 10 11 12 13 14 15 16
000
FTUS45 KRIW 281700 AAA
TAFCPR
TAF AMD
KCPR 281758Z 2818/2918 24009KT P6SM VCSH SCT050 BKN080
      TEMPO 2818/2819 6SM -SHRA BKN035 BKN080
     FM281900 VRB12G18KT P6SM -SHRA VCTS SCT040CB BKN070
     FM290400 03008KT P6SM -SHRA SCT035 BKN060
     FM290800 VRB05KT P6SM VCSH OVC030=

USA.gov is the U.S. government's official web portal to all federal, state and local government web resources and services.